Flight Track Log - Related Links

Times and Time Zones

All times are in EDT time to prevent confusion due to time zone crossing. See the AWE1940 flight status page for this flight to view local times or setup timezone preferences in your user account.

Time Position Orientation Groundspeed Altitude Reporting Facility
EDT Latitude Longitude Course Direction KTS MPH feet Rate Location/Type
Wed 11:09:53 PM 35.2389 -80.9414 72° East 183 211 1,800  Level Atlanta Center
Wed 11:10:23 PM 35.2617 -80.9356 12° North 197 227 2,500 1,912 Climbing Atlanta Center
Wed 11:11:24 PM 35.2850 -80.8661 68° East 263 303 4,700 2,387 Climbing Atlanta Center
Wed 11:11:56 PM 35.2589 -80.8239 127° Southeast 260 299 6,200 2,804 Climbing Atlanta Center
Wed 11:12:00 PM 35.1112 -80.6259 29° Northeast  Level FlightAware Approximate
Wed 11:12:56 PM 35.2233 -80.7414 118° Southeast 277 319 9,000  Level Atlanta Center
Wed 11:13:00 PM 35.2075 -80.5613 30° Northeast  Level FlightAware Approximate
Wed 11:13:56 PM 35.2019 -80.6431 105° East 282 325 12,100  Level Atlanta Center
Wed 11:14:00 PM 35.3024 -80.4935 30° Northeast  Level FlightAware Approximate
Wed 11:14:56 PM 35.1972 -80.5492 93° East 293 337 14,000  Level Atlanta Center
Wed 11:15:00 PM 35.3528 -80.3932 72° East  Level FlightAware Approximate
Wed 11:15:56 PM 35.2000 -80.4347 88° East 319 367 16,000  Level Atlanta Center
Wed 11:16:56 PM 35.2108 -80.3069 84° East 354 407 17,100 1,150 Climbing Atlanta Center
Wed 11:17:56 PM 35.2278 -80.1792 81° East 371 427 18,300 1,699 Climbing Atlanta Center
Wed 11:19:42 PM 35.3294 -79.9531 61° Northeast 406 467 21,800 1,699 Climbing Washington Center
Wed 11:20:42 PM 35.3861 -79.8339 60° Northeast 406 467 23,000 1,300 Climbing Washington Center
Wed 11:21:42 PM 35.4447 -79.7094 60° Northeast 406 467 24,400 1,140 Climbing Washington Center
Wed 11:22:43 PM 35.5033 -79.5825 60° Northeast 411 473 25,300 1,240 Climbing Washington Center
Wed 11:23:43 PM 35.5658 -79.4528 59° Northeast 423 487 26,900 1,462 Climbing Washington Center
Wed 11:24:42 PM 35.6286 -79.3178 60° Northeast 434 499 28,200 1,059 Climbing Washington Center
Wed 11:25:42 PM 35.6933 -79.1828 59° Northeast 439 505 29,000 400 Climbing Washington Center
Wed 11:26:42 PM 35.7489 -79.0625 60° Northeast 439 505 29,000 454 Level Washington Center
Wed 11:27:41 PM 35.8136 -78.9192 61° Northeast 454 522 29,900 1,200 Climbing Washington Center
Wed 11:28:42 PM 35.8758 -78.7808 61° Northeast 454 522 31,400 1,240 Climbing Washington Center
Wed 11:29:42 PM 35.9419 -78.6475 58° Northeast 454 522 32,400 793 Climbing Washington Center
Wed 11:30:43 PM 36.0100 -78.5089 59° Northeast 454 522 33,000 298 Climbing Washington Center
Wed 11:31:43 PM 36.0758 -78.3728 59° Northeast 454 522 33,000  Level Washington Center
Wed 11:32:43 PM 36.1372 -78.2386 60° Northeast 454 522 33,000  Level Washington Center
Wed 11:33:43 PM 36.2028 -78.1042 59° Northeast 454 522 33,000  Level Washington Center
Wed 11:34:44 PM 36.2681 -77.9697 59° Northeast 454 522 33,000  Level Washington Center
Wed 11:35:44 PM 36.3333 -77.8353 59° Northeast 454 522 33,000  Level Washington Center
Wed 11:36:42 PM 36.3961 -77.7003 60° Northeast 454 522 33,000  Level Washington Center
Wed 11:37:42 PM 36.4614 -77.5547 61° Northeast 448 516 33,000  Level Washington Center
Wed 11:38:42 PM 36.5197 -77.4294 60° Northeast 453 521 33,000  Level Washington Center
Wed 11:39:43 PM 36.5842 -77.2939 59° Northeast 453 521 33,000  Level Washington Center
Wed 11:40:44 PM 36.6444 -77.1581 61° Northeast 453 521 33,000  Level Washington Center
Wed 11:41:42 PM 36.7131 -77.0222 58° Northeast 453 521 33,000  Level Washington Center
Wed 11:42:42 PM 36.8100 -76.9253 39° Northeast 448 516 33,000  Level Washington Center
Wed 11:43:42 PM 36.9133 -76.8311 36° Northeast 442 509 33,000  Level Washington Center
Wed 11:44:44 PM 37.0164 -76.7392 35° Northeast 452 520 33,000  Level Washington Center
Wed 11:45:42 PM 37.1194 -76.6442 36° Northeast 457 526 33,000  Level Washington Center
Wed 11:46:43 PM 37.2331 -76.5414 36° Northeast 457 526 33,000  Level Washington Center
Wed 11:47:44 PM 37.3358 -76.4461 36° Northeast 457 526 33,000  Level Washington Center
Wed 11:48:44 PM 37.4386 -76.3556 35° Northeast 457 526 33,000  Level Washington Center
Wed 11:49:41 PM 37.5394 -76.2622 36° Northeast 457 526 33,000  Level Washington Center
Wed 11:50:42 PM 37.6400 -76.1686 36° Northeast 452 520 33,000  Level Washington Center
Wed 11:51:43 PM 37.7342 -76.0881 34° Northeast 452 520 33,000  Level Washington Center
Wed 11:52:42 PM 37.8408 -75.9808 38° Northeast 452 520 33,000  Level Washington Center
Wed 11:53:42 PM 37.9414 -75.8867 36° Northeast 447 514 33,000  Level Washington Center
Wed 11:54:44 PM 38.0353 -75.8053 34° Northeast 447 514 33,000  Level Washington Center
Wed 11:55:41 PM 38.1375 -75.7000 39° Northeast 442 509 33,000  Level Washington Center
Wed 11:56:41 PM 38.2356 -75.6103 36° Northeast 437 503 33,000  Level Washington Center
Wed 11:57:42 PM 38.3378 -75.5256 33° Northeast 437 503 33,000  Level Washington Center
Wed 11:58:42 PM 38.4483 -75.4511 28° Northeast 437 503 33,000  Level Washington Center
Wed 11:59:41 PM 38.5586 -75.3819 26° Northeast 437 503 33,000  Level Washington Center
Thu 12:00:43 AM 38.6669 -75.3097 27° Northeast 437 503 33,000  Level Washington Center
Thu 12:01:43 AM 38.7772 -75.2375 27° Northeast 437 503 33,000  Level Washington Center
Thu 12:02:43 AM 38.8894 -75.1675 26° Northeast 437 503 33,000  Level Washington Center
Thu 12:03:41 AM 38.9978 -75.0894 29° Northeast 437 503 33,000  Level Washington Center
Thu 12:04:42 AM 39.1078 -75.0192 26° Northeast 437 503 33,000  Level Washington Center
Thu 12:05:42 AM 39.2219 -74.9433 27° Northeast 443 510 33,000  Level Washington Center
Thu 12:06:43 AM 39.3319 -74.8697 27° Northeast 443 510 33,000  Level Washington Center
Thu 12:07:44 AM 39.4442 -74.7933 28° Northeast 443 510 33,000  Level Washington Center
Thu 12:08:42 AM 39.5561 -74.7169 28° Northeast 443 510 33,000  Level Washington Center
Thu 12:09:44 AM 39.6661 -74.6400 28° Northeast 443 510 33,000  Level Washington Center
Thu 12:10:39 AM 39.7792 -74.5769 23° Northeast 443 510 33,000  Level New York Center
Thu 12:11:40 AM 39.8881 -74.4989 29° Northeast 436 502 33,000  Level New York Center
Thu 12:12:38 AM 39.9967 -74.4181 30° Northeast 447 514 33,000  Level New York Center
Thu 12:13:40 AM 40.1097 -74.3397 28° Northeast 447 514 33,000  Level New York Center
Thu 12:14:38 AM 40.2225 -74.2614 28° Northeast 452 520 33,000 -508 Level New York Center
Thu 12:15:38 AM 40.3333 -74.1797 29° Northeast 452 520 32,000 -934 Descending New York Center
Thu 12:16:40 AM 40.4481 -74.1036 27° Northeast 452 520 31,100 -1,193 Descending New York Center
Thu 12:18:39 AM 40.6731 -73.9533 27° Northeast 481 554 28,400 -1,844 Descending Boston Center
Thu 12:19:39 AM 40.7844 -73.8708 29° Northeast 462 532 25,600 -2,200 Descending Boston Center
Thu 12:20:39 AM 40.8756 -73.7631 42° Northeast 447 514 24,000 -800 Descending Boston Center
Thu 12:21:39 AM 40.9600 -73.6494 45° Northeast 433 498 24,000 -400 Level Boston Center
Thu 12:22:39 AM 41.0750 -73.6131 13° North 419 482 23,200 -900 Descending Boston Center
Thu 12:23:39 AM 41.1958 -73.6317 353° North 399 459 22,200 -1,250 Descending Boston Center
Thu 12:24:39 AM 41.3122 -73.6422 356° North 415 478 20,700 -1,100 Descending Boston Center
Thu 12:25:39 AM 41.4311 -73.6556 355° North 420 483 20,000 -350 Descending Boston Center
Thu 12:26:39 AM 41.5247 -73.6656 355° North 420 483 20,000 -500 Level Boston Center
Thu 12:27:39 AM 41.6619 -73.6822 355° North 420 483 19,000 -1,650 Descending Boston Center
Thu 12:28:39 AM 41.7786 -73.6928 356° North 420 483 16,700 -2,372 Descending Boston Center
Thu 12:29:05 AM 41.8222 -73.6992 354° North 406 467 15,600 -2,300 Descending Boston Center
Thu 12:29:39 AM 41.8869 -73.7061 355° North 407 468 14,400 -2,170 Descending Boston Center
Thu 12:30:39 AM 41.9931 -73.7167 356° North 390 449 12,200 -1,700 Descending Boston Center
Thu 12:31:39 AM 42.1014 -73.7300 355° North 382 440 11,000 -600 Descending Boston Center
Thu 12:32:39 AM 42.1928 -73.7403 355° North 375 432 11,000 -100 Level Boston Center
Thu 12:33:39 AM 42.3053 -73.7428 359° North 365 420 10,800 -641 Descending Boston Center
Thu 12:34:50 AM 42.4097 -73.7222 North 319 367 9,600 -1,364 Descending Boston Center
Thu 12:35:51 AM 42.5039 -73.7017 North 316 364 7,800 -1,500 Descending Boston Center
Thu 12:36:58 AM 42.5978 -73.6811 North 309 356 6,400 -1,313 Descending Boston Center
Thu 12:37:59 AM 42.6772 -73.6658 North 294 338 5,000 -942 Descending Boston Center
Thu 12:38:59 AM 42.7522 -73.6586 North 259 298 4,500 -347 Descending Boston Center
Thu 12:40:00 AM 42.8275 -73.6517 North 249 287 4,300 -626 Descending Boston Center
Thu 12:40:54 AM 42.8839 -73.6444 North 246 283 3,300 -678 Descending Boston Center
Thu 12:41:55 AM 42.9397 -73.6708 341° North 206 237 3,000 -443 Descending Boston Center
Thu 12:42:56 AM 42.9453 -73.7364 277° West 165 190 2,400 -496 Descending Boston Center
Thu 12:43:56 AM 42.9342 -73.7956 256° West 163 188 2,000 -400 Descending Boston Center

Login

Don't have an account? Register now (free) for customized features, flight alerts, and more!